Mekhanik Pustoshny — UCBM — position and weather

sailwx.info

Track history (hours):
 
Tides and Currents Weather Stations Pressure Air Temp Water Temp Dewpoint Dewpoint Depression Visibility Wind Speed Wind Dir Waves Ship Positions

Mekhanik Pustoshny

Last reported at 2017-Nov-16 21:40 UTC. Time now 2017-Nov-22 18:11 UTC.
Position N 70°37' E 031°32'.

Length 85 m; beam 15 m.

Type: Ship. MMSI: 273114000.

Date/timePositionNaut miles runAvg speedWind from/ knotsBaromVisibWave heightAir tempDewpointWater temp
2017-Nov-16 21:40N 70°37' E 031°32'210.3
2017-Nov-16 21:30N 70°39' E 031°28'510.0
2017-Nov-16 21:00N 70°41' E 031°16'5 9.9
2017-Nov-16 20:31N 70°44' E 031°04'5 9.6
2017-Nov-16 20:01N 70°47' E 030°52'510.1
2017-Nov-16 19:30N 70°50' E 030°40'510.2
2017-Nov-16 19:01N 70°54' E 030°28'510.2
2017-Nov-16 18:30N 70°56' E 030°15'5 9.9
2017-Nov-16 18:00N 70°59' E 030°01'5 9.8
2017-Nov-16 17:30N 71°01' E 029°48'510.5
2017-Nov-16 17:00N 71°04' E 029°34'510.6
2017-Nov-16 16:30N 71°07' E 029°21'510.6
2017-Nov-16 16:00N 71°10' E 029°07'510.5
2017-Nov-16 15:30N 71°13' E 028°54'510.8
2017-Nov-16 15:00N 71°16' E 028°39'611.6
2017-Nov-16 14:30N 71°18' E 028°23'611.1
2017-Nov-16 14:00N 71°19' E 028°06'510.8
2017-Nov-16 13:30N 71°20' E 027°49'510.3
2017-Nov-16 13:00N 71°20' E 027°33'510.4
2017-Nov-16 12:30N 71°21' E 027°17'510.5
2017-Nov-16 12:00N 71°22' E 027°01'510.0
2017-Nov-16 11:30N 71°22' E 026°45'5 9.5
2017-Nov-16 11:00N 71°23' E 026°31'5 9.5
2017-Nov-16 10:30N 71°23' E 026°16'5 9.5
2017-Nov-16 10:01N 71°24' E 026°01'5 9.1
2017-Nov-16 09:30N 71°24' E 025°47'5 9.4
2017-Nov-16 09:00N 71°24' E 025°32'5 9.1
2017-Nov-16 08:30N 71°23' E 025°18'4 8.9
2017-Nov-16 08:00N 71°23' E 025°04'5 9.1
2017-Nov-16 07:30N 71°22' E 024°50'5 9.1
2017-Nov-16 07:00N 71°21' E 024°36'5 9.9
2017-Nov-16 06:31N 71°20' E 024°21'5 9.5
2017-Nov-16 06:00N 71°20' E 024°06'5 9.8
2017-Nov-16 05:30N 71°19' E 023°51'5 9.8
2017-Nov-16 05:01N 71°17' E 023°37'510.1
2017-Nov-16 04:30N 71°15' E 023°23'510.3
2017-Nov-16 04:00N 71°12' E 023°09'510.5
2017-Nov-16 03:30N 71°10' E 022°54'510.3
2017-Nov-16 03:00N 71°08' E 022°40'510.4
2017-Nov-16 02:30N 71°06' E 022°25'510.9
2017-Nov-16 02:01N 71°03' E 022°10'611.3
2017-Nov-16 01:30N 71°01' E 021°54'4411.0
2017-Nov-15 21:34N 70°41' E 019°56'111.4
2017-Nov-15 21:30N 70°41' E 019°54'611.5
2017-Nov-15 21:00N 70°39' E 019°38'611.2
2017-Nov-15 20:30N 70°36' E 019°23'510.6
2017-Nov-15 20:00N 70°34' E 019°09'510.6
2017-Nov-15 19:30N 70°32' E 018°55'611.1
2017-Nov-15 19:00N 70°29' E 018°39'5010.8
2017-Nov-15 14:23N 69°56' E 016°49'410.0
2017-Nov-15 14:00N 69°53' E 016°41'510.0
2017-Nov-15 13:30N 69°50' E 016°31'611.4
2017-Nov-15 13:00N 69°46' E 016°19'611.7
2017-Nov-15 12:30N 69°42' E 016°07'611.4
2017-Nov-15 12:00N 69°38' E 015°55'611.6
2017-Nov-15 11:30N 69°33' E 015°43'611.9
2017-Nov-15 11:00N 69°29' E 015°32'612.4
2017-Nov-15 10:30N 69°25' E 015°19'612.0
2017-Nov-15 10:00N 69°20' E 015°07'611.7
2017-Nov-15 09:30N 69°16' E 014°56'611.8
2017-Nov-15 09:00N 69°12' E 014°44'611.6
2017-Nov-15 08:30N 69°08' E 014°32'611.7
2017-Nov-15 08:00N 69°04' E 014°20'611.4
2017-Nov-15 07:30N 69°00' E 014°09'611.1
2017-Nov-15 07:00N 68°56' E 013°58'611.2
2017-Nov-15 06:30N 68°52' E 013°48'611.8
2017-Nov-15 06:00N 68°47' E 013°38'611.8
2017-Nov-15 05:30N 68°43' E 013°28'611.0
2017-Nov-15 05:00N 68°38' E 013°18'611.3
2017-Nov-15 04:30N 68°34' E 013°09'612.0
2017-Nov-15 04:00N 68°29' E 012°59'612.0
2017-Nov-15 03:30N 68°25' E 012°49'611.5
2017-Nov-15 03:00N 68°20' E 012°40'611.4
2017-Nov-15 02:30N 68°15' E 012°30'611.3
2017-Nov-15 02:00N 68°11' E 012°22'  
2017-Nov-11 04:10N 59°22' W 003°35'2 9.5
2017-Nov-11 04:00N 59°21' W 003°38'4 8.6
2017-Nov-11 03:31N 59°19' W 003°45'4 7.4
2017-Nov-11 03:00N 59°16' W 003°50'3 6.8
2017-Nov-11 02:30N 59°14' W 003°54'4 7.3
2017-Nov-11 02:01N 59°11' W 003°58'4 7.4
2017-Nov-11 01:30N 59°08' W 004°03'  
2017-Nov-08 16:14N 55°55' W 006°58'2 9.4
2017-Nov-08 16:00N 55°54' W 006°56'5 9.2
2017-Nov-08 15:30N 55°50' W 006°51'5 9.3
2017-Nov-08 15:00N 55°46' W 006°46'510.3
2017-Nov-08 14:30N 55°42' W 006°41'611.3
2017-Nov-08 14:00N 55°37' W 006°35'510.9
2017-Nov-08 13:30N 55°33' W 006°29'510.3
2017-Nov-08 13:00N 55°29' W 006°24'4 8.8
2017-Nov-08 12:30N 55°27' W 006°17'4 8.4
2017-Nov-08 12:00N 55°26' W 006°10'4 7.6
2017-Nov-08 11:30N 55°25' W 006°03'4 7.3
2017-Nov-08 11:00N 55°22' W 005°59'4 7.5
2017-Nov-08 10:30N 55°19' W 005°56'3 6.9
2017-Nov-08 10:00N 55°16' W 005°52'4 7.7
2017-Nov-08 09:30N 55°13' W 005°48'4 8.4
2017-Nov-08 09:00N 55°09' W 005°44'5 9.4
2017-Nov-08 08:30N 55°05' W 005°39'710.3
2017-Nov-08 07:49N 54°59' W 005°33'411.2
2017-Nov-08 07:30N 54°56' W 005°31'611.7
2017-Nov-08 07:00N 54°50' W 005°28'611.2
2017-Nov-08 06:30N 54°46' W 005°33'5 9.8
2017-Nov-08 06:00N 54°42' W 005°39'1 2.3
2017-Nov-08 05:30N 54°41' W 005°41'0 0.0
2017-Nov-08 05:00N 54°41' W 005°41'0 0.0
2017-Nov-08 04:30N 54°41' W 005°41'0 0.0
2017-Nov-08 04:00N 54°41' W 005°41'0 0.0
2017-Nov-08 03:30N 54°41' W 005°41'0 0.0
2017-Nov-08 03:00N 54°41' W 005°41'0 0.0
2017-Nov-08 02:30N 54°41' W 005°41'0 0.0
2017-Nov-08 02:00N 54°41' W 005°41'0 0.0
2017-Nov-08 01:30N 54°41' W 005°41'0 0.0
2017-Nov-08 01:00N 54°41' W 005°41'0 0.0
2017-Nov-08 00:30N 54°41' W 005°41'0 0.0
2017-Nov-07 23:57N 54°41' W 005°41'0 0.0
2017-Nov-07 23:30N 54°41' W 005°41'0 0.0
2017-Nov-07 23:00N 54°41' W 005°41'0 0.0
2017-Nov-07 22:30N 54°41' W 005°41'0 0.0
2017-Nov-07 22:00N 54°41' W 005°41'0 0.0
2017-Nov-07 21:30N 54°41' W 005°41'0 0.0
2017-Nov-07 21:00N 54°41' W 005°41'0 0.0
2017-Nov-07 20:30N 54°41' W 005°41'0 0.0
2017-Nov-07 20:00N 54°41' W 005°41'0 0.0
2017-Nov-07 19:30N 54°41' W 005°41'0 0.0
2017-Nov-07 19:00N 54°41' W 005°41'0 0.0
2017-Nov-07 18:30N 54°41' W 005°41'0 0.0
2017-Nov-07 17:57N 54°41' W 005°41'0 0.0
2017-Nov-07 17:30N 54°41' W 005°41'0 0.0
2017-Nov-07 17:00N 54°41' W 005°41'0 0.0
2017-Nov-07 16:30N 54°41' W 005°41'0 0.0
2017-Nov-07 16:00N 54°41' W 005°41'0 0.0
2017-Nov-07 15:30N 54°41' W 005°41'0 0.0
2017-Nov-07 15:00N 54°41' W 005°41'0 0.0
2017-Nov-07 14:30N 54°41' W 005°41'0 0.0
2017-Nov-07 13:51N 54°41' W 005°41'0 0.0
2017-Nov-07 13:30N 54°41' W 005°41'0 0.0
2017-Nov-07 13:00N 54°41' W 005°41'0 0.0
2017-Nov-07 12:30N 54°41' W 005°41'0 0.0
2017-Nov-07 12:00N 54°41' W 005°41'0 0.0
2017-Nov-07 11:24N 54°41' W 005°41'0 0.0
2017-Nov-07 11:00N 54°41' W 005°41'0 0.0
2017-Nov-07 10:30N 54°41' W 005°41'0 0.0
2017-Nov-07 10:00N 54°41' W 005°41'0 0.0
2017-Nov-07 09:30N 54°41' W 005°41'0 0.0
2017-Nov-07 09:00N 54°41' W 005°41'0 0.0
2017-Nov-07 08:30N 54°41' W 005°41'0 0.0
2017-Nov-07 07:59N 54°41' W 005°41'0 0.0
2017-Nov-07 07:29N 54°41' W 005°41'0 0.0
2017-Nov-07 06:59N 54°41' W 005°41'0 0.0
2017-Nov-07 06:29N 54°41' W 005°41'0 0.0
2017-Nov-07 05:59N 54°41' W 005°41'0 0.1
2017-Nov-07 05:29N 54°41' W 005°41'0 0.0
2017-Nov-07 04:59N 54°41' W 005°41'0 0.0
2017-Nov-07 04:29N 54°41' W 005°41'0 0.0
2017-Nov-07 03:59N 54°41' W 005°41'0 0.0
2017-Nov-07 03:29N 54°41' W 005°41'0 0.0
2017-Nov-07 02:59N 54°41' W 005°41'0 0.0
2017-Nov-07 02:29N 54°41' W 005°41'0 0.2
2017-Nov-07 01:59N 54°41' W 005°41'0 0.0
2017-Nov-07 01:29N 54°41' W 005°41'0 0.0
2017-Nov-07 00:59N 54°41' W 005°41'0 0.0
2017-Nov-07 00:29N 54°41' W 005°41'0 0.0
2017-Nov-06 23:59N 54°41' W 005°41'0 0.0
2017-Nov-06 23:29N 54°41' W 005°41'0 0.0
2017-Nov-06 22:59N 54°41' W 005°41'0 0.0
2017-Nov-06 22:29N 54°41' W 005°41'0 0.0
2017-Nov-06 21:56N 54°41' W 005°41'  
Track history (hours):
 
Tides and Currents Weather Stations Pressure Air Temp Water Temp Dewpoint Dewpoint Depression Visibility Wind Speed Wind Dir Waves Ship Positions

Mekhanik Pustoshny

Last reported at 2017-Nov-16 21:40 UTC. Time now 2017-Nov-22 18:11 UTC.
Position N 70°37' E 031°32'.

Length 85 m; beam 15 m.

Type: Ship. MMSI: 273114000.

Date/timePositionNaut miles runAvg speedWind from/ knotsBaromVisibWave heightAir tempDewpointWater temp
2017-Nov-16 21:40N 70°37' E 031°32'210.3
2017-Nov-16 21:30N 70°39' E 031°28'510.0
2017-Nov-16 21:00N 70°41' E 031°16'5 9.9
2017-Nov-16 20:31N 70°44' E 031°04'5 9.6
2017-Nov-16 20:01N 70°47' E 030°52'510.1
2017-Nov-16 19:30N 70°50' E 030°40'510.2
2017-Nov-16 19:01N 70°54' E 030°28'510.2
2017-Nov-16 18:30N 70°56' E 030°15'5 9.9
2017-Nov-16 18:00N 70°59' E 030°01'5 9.8
2017-Nov-16 17:30N 71°01' E 029°48'510.5
2017-Nov-16 17:00N 71°04' E 029°34'510.6
2017-Nov-16 16:30N 71°07' E 029°21'510.6
2017-Nov-16 16:00N 71°10' E 029°07'510.5
2017-Nov-16 15:30N 71°13' E 028°54'510.8
2017-Nov-16 15:00N 71°16' E 028°39'611.6
2017-Nov-16 14:30N 71°18' E 028°23'611.1
2017-Nov-16 14:00N 71°19' E 028°06'510.8
2017-Nov-16 13:30N 71°20' E 027°49'510.3
2017-Nov-16 13:00N 71°20' E 027°33'510.4
2017-Nov-16 12:30N 71°21' E 027°17'510.5
2017-Nov-16 12:00N 71°22' E 027°01'510.0
2017-Nov-16 11:30N 71°22' E 026°45'5 9.5
2017-Nov-16 11:00N 71°23' E 026°31'5 9.5
2017-Nov-16 10:30N 71°23' E 026°16'5 9.5
2017-Nov-16 10:01N 71°24' E 026°01'5 9.1
2017-Nov-16 09:30N 71°24' E 025°47'5 9.4
2017-Nov-16 09:00N 71°24' E 025°32'5 9.1
2017-Nov-16 08:30N 71°23' E 025°18'4 8.9
2017-Nov-16 08:00N 71°23' E 025°04'5 9.1
2017-Nov-16 07:30N 71°22' E 024°50'5 9.1
2017-Nov-16 07:00N 71°21' E 024°36'5 9.9
2017-Nov-16 06:31N 71°20' E 024°21'5 9.5
2017-Nov-16 06:00N 71°20' E 024°06'5 9.8
2017-Nov-16 05:30N 71°19' E 023°51'5 9.8
2017-Nov-16 05:01N 71°17' E 023°37'510.1
2017-Nov-16 04:30N 71°15' E 023°23'510.3
2017-Nov-16 04:00N 71°12' E 023°09'510.5
2017-Nov-16 03:30N 71°10' E 022°54'510.3
2017-Nov-16 03:00N 71°08' E 022°40'510.4
2017-Nov-16 02:30N 71°06' E 022°25'510.9
2017-Nov-16 02:01N 71°03' E 022°10'611.3
2017-Nov-16 01:30N 71°01' E 021°54'4411.0
2017-Nov-15 21:34N 70°41' E 019°56'111.4
2017-Nov-15 21:30N 70°41' E 019°54'611.5
2017-Nov-15 21:00N 70°39' E 019°38'611.2
2017-Nov-15 20:30N 70°36' E 019°23'510.6
2017-Nov-15 20:00N 70°34' E 019°09'510.6
2017-Nov-15 19:30N 70°32' E 018°55'611.1
2017-Nov-15 19:00N 70°29' E 018°39'5010.8
2017-Nov-15 14:23N 69°56' E 016°49'410.0
2017-Nov-15 14:00N 69°53' E 016°41'510.0
2017-Nov-15 13:30N 69°50' E 016°31'611.4
2017-Nov-15 13:00N 69°46' E 016°19'611.7
2017-Nov-15 12:30N 69°42' E 016°07'611.4
2017-Nov-15 12:00N 69°38' E 015°55'611.6
2017-Nov-15 11:30N 69°33' E 015°43'611.9
2017-Nov-15 11:00N 69°29' E 015°32'612.4
2017-Nov-15 10:30N 69°25' E 015°19'612.0
2017-Nov-15 10:00N 69°20' E 015°07'611.7
2017-Nov-15 09:30N 69°16' E 014°56'611.8
2017-Nov-15 09:00N 69°12' E 014°44'611.6
2017-Nov-15 08:30N 69°08' E 014°32'611.7
2017-Nov-15 08:00N 69°04' E 014°20'611.4
2017-Nov-15 07:30N 69°00' E 014°09'611.1
2017-Nov-15 07:00N 68°56' E 013°58'611.2
2017-Nov-15 06:30N 68°52' E 013°48'611.8
2017-Nov-15 06:00N 68°47' E 013°38'611.8
2017-Nov-15 05:30N 68°43' E 013°28'611.0
2017-Nov-15 05:00N 68°38' E 013°18'611.3
2017-Nov-15 04:30N 68°34' E 013°09'612.0
2017-Nov-15 04:00N 68°29' E 012°59'612.0
2017-Nov-15 03:30N 68°25' E 012°49'611.5
2017-Nov-15 03:00N 68°20' E 012°40'611.4
2017-Nov-15 02:30N 68°15' E 012°30'611.3
2017-Nov-15 02:00N 68°11' E 012°22'  
2017-Nov-11 04:10N 59°22' W 003°35'2 9.5
2017-Nov-11 04:00N 59°21' W 003°38'4 8.6
2017-Nov-11 03:31N 59°19' W 003°45'4 7.4
2017-Nov-11 03:00N 59°16' W 003°50'3 6.8
2017-Nov-11 02:30N 59°14' W 003°54'4 7.3
2017-Nov-11 02:01N 59°11' W 003°58'4 7.4
2017-Nov-11 01:30N 59°08' W 004°03'  
2017-Nov-08 16:14N 55°55' W 006°58'2 9.4
2017-Nov-08 16:00N 55°54' W 006°56'5 9.2
2017-Nov-08 15:30N 55°50' W 006°51'5 9.3
2017-Nov-08 15:00N 55°46' W 006°46'510.3
2017-Nov-08 14:30N 55°42' W 006°41'611.3
2017-Nov-08 14:00N 55°37' W 006°35'510.9
2017-Nov-08 13:30N 55°33' W 006°29'510.3
2017-Nov-08 13:00N 55°29' W 006°24'4 8.8
2017-Nov-08 12:30N 55°27' W 006°17'4 8.4
2017-Nov-08 12:00N 55°26' W 006°10'4 7.6
2017-Nov-08 11:30N 55°25' W 006°03'4 7.3
2017-Nov-08 11:00N 55°22' W 005°59'4 7.5
2017-Nov-08 10:30N 55°19' W 005°56'3 6.9
2017-Nov-08 10:00N 55°16' W 005°52'4 7.7
2017-Nov-08 09:30N 55°13' W 005°48'4 8.4
2017-Nov-08 09:00N 55°09' W 005°44'5 9.4
2017-Nov-08 08:30N 55°05' W 005°39'710.3
2017-Nov-08 07:49N 54°59' W 005°33'411.2
2017-Nov-08 07:30N 54°56' W 005°31'611.7
2017-Nov-08 07:00N 54°50' W 005°28'611.2
2017-Nov-08 06:30N 54°46' W 005°33'5 9.8
2017-Nov-08 06:00N 54°42' W 005°39'1 2.3
2017-Nov-08 05:30N 54°41' W 005°41'0 0.0
2017-Nov-08 05:00N 54°41' W 005°41'0 0.0
2017-Nov-08 04:30N 54°41' W 005°41'0 0.0
2017-Nov-08 04:00N 54°41' W 005°41'0 0.0
2017-Nov-08 03:30N 54°41' W 005°41'0 0.0
2017-Nov-08 03:00N 54°41' W 005°41'0 0.0
2017-Nov-08 02:30N 54°41' W 005°41'0 0.0
2017-Nov-08 02:00N 54°41' W 005°41'0 0.0
2017-Nov-08 01:30N 54°41' W 005°41'0 0.0
2017-Nov-08 01:00N 54°41' W 005°41'0 0.0
2017-Nov-08 00:30N 54°41' W 005°41'0 0.0
2017-Nov-07 23:57N 54°41' W 005°41'0 0.0
2017-Nov-07 23:30N 54°41' W 005°41'0 0.0
2017-Nov-07 23:00N 54°41' W 005°41'0 0.0
2017-Nov-07 22:30N 54°41' W 005°41'0 0.0
2017-Nov-07 22:00N 54°41' W 005°41'0 0.0
2017-Nov-07 21:30N 54°41' W 005°41'0 0.0
2017-Nov-07 21:00N 54°41' W 005°41'0 0.0
2017-Nov-07 20:30N 54°41' W 005°41'0 0.0
2017-Nov-07 20:00N 54°41' W 005°41'0 0.0
2017-Nov-07 19:30N 54°41' W 005°41'0 0.0
2017-Nov-07 19:00N 54°41' W 005°41'0 0.0
2017-Nov-07 18:30N 54°41' W 005°41'0 0.0
2017-Nov-07 17:57N 54°41' W 005°41'0 0.0
2017-Nov-07 17:30N 54°41' W 005°41'0 0.0
2017-Nov-07 17:00N 54°41' W 005°41'0 0.0
2017-Nov-07 16:30N 54°41' W 005°41'0 0.0
2017-Nov-07 16:00N 54°41' W 005°41'0 0.0
2017-Nov-07 15:30N 54°41' W 005°41'0 0.0
2017-Nov-07 15:00N 54°41' W 005°41'0 0.0
2017-Nov-07 14:30N 54°41' W 005°41'0 0.0
2017-Nov-07 13:51N 54°41' W 005°41'0 0.0
2017-Nov-07 13:30N 54°41' W 005°41'0 0.0
2017-Nov-07 13:00N 54°41' W 005°41'0 0.0
2017-Nov-07 12:30N 54°41' W 005°41'0 0.0
2017-Nov-07 12:00N 54°41' W 005°41'0 0.0
2017-Nov-07 11:24N 54°41' W 005°41'0 0.0
2017-Nov-07 11:00N 54°41' W 005°41'0 0.0
2017-Nov-07 10:30N 54°41' W 005°41'0 0.0
2017-Nov-07 10:00N 54°41' W 005°41'0 0.0
2017-Nov-07 09:30N 54°41' W 005°41'0 0.0
2017-Nov-07 09:00N 54°41' W 005°41'0 0.0
2017-Nov-07 08:30N 54°41' W 005°41'0 0.0
2017-Nov-07 07:59N 54°41' W 005°41'0 0.0
2017-Nov-07 07:29N 54°41' W 005°41'0 0.0
2017-Nov-07 06:59N 54°41' W 005°41'0 0.0
2017-Nov-07 06:29N 54°41' W 005°41'0 0.0
2017-Nov-07 05:59N 54°41' W 005°41'0 0.1
2017-Nov-07 05:29N 54°41' W 005°41'0 0.0
2017-Nov-07 04:59N 54°41' W 005°41'0 0.0
2017-Nov-07 04:29N 54°41' W 005°41'0 0.0
2017-Nov-07 03:59N 54°41' W 005°41'0 0.0
2017-Nov-07 03:29N 54°41' W 005°41'0 0.0
2017-Nov-07 02:59N 54°41' W 005°41'0 0.0
2017-Nov-07 02:29N 54°41' W 005°41'0 0.2
2017-Nov-07 01:59N 54°41' W 005°41'0 0.0
2017-Nov-07 01:29N 54°41' W 005°41'0 0.0
2017-Nov-07 00:59N 54°41' W 005°41'0 0.0
2017-Nov-07 00:29N 54°41' W 005°41'0 0.0
2017-Nov-06 23:59N 54°41' W 005°41'0 0.0
2017-Nov-06 23:29N 54°41' W 005°41'0 0.0
2017-Nov-06 22:59N 54°41' W 005°41'0 0.0
2017-Nov-06 22:29N 54°41' W 005°41'0 0.0
2017-Nov-06 21:56N 54°41' W 005°41'  

Dump ship's entire track history